Time;durP1;ratioP1;P1;durP2;ratioP2;P2;SDS_P1;SDS_P2;PMS_P1;PMS_P2;Temp;Humidity;BMP_temperature;BMP_pressure;BME280_temperature;BME280_humidity;BME280_pressure;Samples;Min_cycle;Max_cycle;Signal;HPM_P1;HPM_P2
2021/03/14 00:01:15;;;;;;;26.88;18.63;;;;;;;5.99;75.57;93621.81;4901607;28;20129;-82
2021/03/14 00:03:41;;;;;;;26.45;19.35;;;;;;;5.72;75.65;93566.97;4935088;28;20125;-82
2021/03/14 00:06:06;;;;;;;23.05;16.92;;;;;;;5.80;75.10;93569.09;4990549;28;20058;-82
2021/03/14 00:08:32;;;;;;;19.90;13.30;;;;;;;5.75;75.33;93569.09;4995798;28;20121;-82
2021/03/14 00:11:05;;;;;;;14.55;11.48;;;;;;;5.80;75.59;93578.78;4992375;28;20042;-82
2021/03/14 00:13:36;;;;;;;14.15;10.45;;;;;;;5.95;75.13;93597.94;4979566;28;20465;-82
2021/03/14 00:16:03;;;;;;;16.25;10.50;;;;;;;6.01;75.43;93612.59;4966531;28;20030;-82
2021/03/14 00:18:40;;;;;;;13.68;9.27;;;;;;;5.64;74.60;93557.81;4971509;28;20030;-82
2021/03/14 00:21:25;;;;;;;13.45;10.48;;;;;;;5.60;74.82;93548.91;4974916;28;20050;-81
2021/03/14 00:23:53;;;;;;;16.30;12.38;;;;;;;5.60;75.17;93548.13;4971174;28;20042;-82
2021/03/14 00:26:28;;;;;;;20.67;13.18;;;;;;;5.60;75.98;93537.63;4986218;28;20053;-82
2021/03/14 00:28:56;;;;;;;17.75;12.98;;;;;;;5.91;75.02;93585.63;4993303;28;20543;-82
2021/03/14 00:31:25;;;;;;;22.88;13.52;;;;;;;5.50;75.58;93546.28;4931386;28;20075;-82
2021/03/14 00:33:53;;;;;;;17.70;12.70;;;;;;;5.72;75.72;93597.69;4980754;28;20022;-81
2021/03/14 00:36:19;;;;;;;19.42;12.32;;;;;;;5.56;75.84;93573.28;4995156;28;20079;-82
2021/03/14 00:38:44;;;;;;;17.02;12.20;;;;;;;5.59;75.86;93544.72;4960810;28;20061;-81
2021/03/14 00:41:11;;;;;;;18.15;12.82;;;;;;;5.52;75.64;93525.84;4964272;28;20109;-82
2021/03/14 00:43:36;;;;;;;16.88;12.00;;;;;;;5.61;75.24;93555.72;4951549;28;20225;-82
2021/03/14 00:46:08;;;;;;;28.60;18.60;;;;;;;5.70;75.66;93569.09;4977931;28;20026;-82
2021/03/14 00:48:35;;;;;;;23.35;16.45;;;;;;;5.66;76.38;93547.88;4974988;28;20117;-82
2021/03/14 00:51:01;;;;;;;21.00;15.68;;;;;;;5.48;76.49;93530.03;4974121;28;20174;-82
2021/03/14 00:53:27;;;;;;;27.92;19.05;;;;;;;5.28;76.62;93529.28;4942902;28;20058;-82
2021/03/14 00:55:52;;;;;;;26.40;17.02;;;;;;;5.39;76.96;93515.91;4973596;28;20046;-83
2021/03/14 00:58:18;;;;;;;17.63;11.75;;;;;;;5.35;76.53;93508.81;4969364;28;20137;-82
2021/03/14 01:00:46;;;;;;;16.50;12.20;;;;;;;5.53;76.56;93548.38;4947894;28;20229;-83
2021/03/14 01:03:23;;;;;;;19.20;12.73;;;;;;;5.71;76.96;93572.50;4958434;28;20055;-82
2021/03/14 01:05:49;;;;;;;16.10;10.70;;;;;;;5.64;76.60;93565.69;4960194;28;20137;-82
2021/03/14 01:08:18;;;;;;;18.75;11.77;;;;;;;5.48;76.08;93534.50;4963688;28;20118;-82
2021/03/14 01:10:45;;;;;;;16.85;11.45;;;;;;;5.41;76.07;93513.03;4967914;28;20202;-83
2021/03/14 01:13:11;;;;;;;16.35;10.23;;;;;;;5.38;75.73;93522.19;4966051;28;20038;-82
2021/03/14 01:15:36;;;;;;;14.90;7.40;;;;;;;5.40;76.13;93525.34;4975672;28;20018;-83
2021/03/14 01:18:09;;;;;;;14.23;8.60;;;;;;;5.36;76.98;93528.75;4966991;28;20097;-84
2021/03/14 01:20:38;;;;;;;11.95;8.80;;;;;;;5.29;76.64;93515.91;4981381;28;20042;-83
2021/03/14 01:23:06;;;;;;;12.93;9.05;;;;;;;5.43;76.57;93540.53;4969632;28;20042;-82
2021/03/14 01:25:32;;;;;;;15.48;9.38;;;;;;;5.23;76.82;93522.97;4972577;28;20605;-83
2021/03/14 01:27:57;;;;;;;13.43;10.32;;;;;;;5.43;76.35;93548.38;4975662;28;20026;-83
2021/03/14 01:30:23;;;;;;;15.55;11.38;;;;;;;5.54;76.74;93565.69;4971936;28;20372;-82
2021/03/14 01:32:53;;;;;;;15.10;9.50;;;;;;;5.26;76.66;93531.34;4971747;28;20035;-82
2021/03/14 01:35:26;;;;;;;17.30;11.68;;;;;;;5.35;76.93;93540.25;4971062;28;20050;-83
2021/03/14 01:37:53;;;;;;;20.83;13.48;;;;;;;5.33;76.47;93527.41;4974128;28;20527;-82
2021/03/14 01:40:23;;;;;;;16.13;12.77;;;;;;;5.40;76.93;93538.44;4960029;28;20064;-83
2021/03/14 01:42:48;;;;;;;15.63;11.32;;;;;;;5.50;77.13;93558.63;4979559;28;20062;-83
2021/03/14 01:45:15;;;;;;;17.25;11.85;;;;;;;5.16;77.11;93511.19;4974901;28;20124;-83
2021/03/14 01:47:50;;;;;;;16.08;11.18;;;;;;;5.19;77.27;93529.78;4974239;28;20049;-83
2021/03/14 01:50:25;;;;;;;16.63;10.80;;;;;;;5.24;77.47;93534.22;4948993;28;20038;-82
2021/03/14 01:52:52;;;;;;;13.85;10.15;;;;;;;5.04;76.89;93492.31;4945991;28;20038;-83
2021/03/14 01:55:19;;;;;;;14.80;9.88;;;;;;;5.07;77.21;93507.53;4979168;28;20054;-82
2021/03/14 01:57:46;;;;;;;12.25;9.50;;;;;;;5.37;77.38;93557.31;4971298;28;20046;-83
2021/03/14 02:00:19;;;;;;;14.00;9.93;;;;;;;5.10;77.11;93502.53;4934270;28;20667;-82
2021/03/14 02:02:53;;;;;;;16.38;10.15;;;;;;;5.36;77.81;93547.09;4985348;28;20379;-82
2021/03/14 02:05:27;;;;;;;12.13;9.85;;;;;;;5.07;77.74;93481.34;4964130;28;20034;-82
2021/03/14 02:07:54;;;;;;;13.85;10.63;;;;;;;5.22;77.58;93520.63;4984801;28;20057;-82
2021/03/14 02:10:35;;;;;;;14.68;11.25;;;;;;;4.92;77.99;93491.78;4990725;28;20050;-82
2021/03/14 02:13:08;;;;;;;17.42;13.43;;;;;;;5.24;78.13;93536.84;4967338;28;20101;-83
2021/03/14 02:15:41;;;;;;;20.45;11.57;;;;;;;5.27;77.30;93520.63;4997978;28;20042;-83
2021/03/14 02:18:08;;;;;;;16.90;10.93;;;;;;;5.33;77.29;93529.25;4974476;28;20134;-83
2021/03/14 02:20:39;;;;;;;15.80;10.93;;;;;;;5.16;77.08;93501.50;4992155;28;20042;-83
2021/03/14 02:23:14;;;;;;;16.70;12.45;;;;;;;5.22;77.33;93525.88;4966735;28;20049;-82
2021/03/14 02:25:52;;;;;;;21.38;11.63;;;;;;;5.18;77.33;93490.78;4987778;28;20044;-83
2021/03/14 02:28:19;;;;;;;22.42;14.40;;;;;;;5.48;77.02;93535.28;4979772;28;20072;-82
2021/03/14 02:30:50;;;;;;;16.38;12.32;;;;;;;5.52;77.11;93538.94;4998860;28;20022;-82
2021/03/14 02:33:22;;;;;;;15.40;10.70;;;;;;;5.61;76.69;93539.22;4947749;28;20047;-82
2021/03/14 02:36:01;;;;;;;16.65;11.88;;;;;;;5.64;76.28;93515.88;4953203;28;20495;-82
2021/03/14 02:38:39;;;;;;;18.75;13.48;;;;;;;5.64;76.06;93521.13;4980968;28;20049;-82
2021/03/14 02:41:09;;;;;;;25.40;16.60;;;;;;;5.50;77.59;93527.16;4970512;28;20046;-82
2021/03/14 02:43:48;;;;;;;14.55;10.82;;;;;;;5.38;77.25;93501.22;4947568;28;20470;-82
2021/03/14 02:46:16;;;;;;;11.25;9.32;;;;;;;5.46;77.07;93511.19;4957992;28;20041;-82
2021/03/14 02:48:41;;;;;;;11.15;9.95;;;;;;;5.55;76.85;93525.31;4982082;28;20535;-83
2021/03/14 02:51:09;;;;;;;11.70;9.23;;;;;;;5.36;76.78;93492.06;4974571;28;20045;-83
2021/03/14 02:53:35;;;;;;;16.23;11.73;;;;;;;5.59;76.96;93505.41;4951540;28;20459;-83
2021/03/14 02:56:01;;;;;;;14.02;11.70;;;;;;;5.46;76.74;93492.84;4969511;28;20050;-83
2021/03/14 02:58:27;;;;;;;17.13;11.60;;;;;;;5.48;76.95;93506.44;4962365;28;20128;-83
2021/03/14 03:00:54;;;;;;;14.85;11.88;;;;;;;5.52;77.04;93519.84;4988977;28;20027;-83
2021/03/14 03:03:24;;;;;;;16.80;12.77;;;;;;;5.73;77.16;93536.31;4971310;28;20891;-83
2021/03/14 03:06:00;;;;;;;16.75;10.82;;;;;;;5.60;77.63;93542.88;4975672;28;20141;-83
2021/03/14 03:08:28;;;;;;;17.58;13.10;;;;;;;5.10;77.88;93462.47;4943591;28;20051;-82
2021/03/14 03:10:58;;;;;;;21.15;13.68;;;;;;;5.60;77.63;93527.16;4940449;28;20951;-83
2021/03/14 03:13:28;;;;;;;17.70;12.90;;;;;;;5.30;77.64;93496.50;4960241;28;20156;-82
2021/03/14 03:15:56;;;;;;;16.02;12.32;;;;;;;5.44;77.64;93528.22;4946246;28;20113;-83
2021/03/14 03:18:23;;;;;;;18.83;13.98;;;;;;;5.15;77.35;93480.78;4945832;28;20056;-83
2021/03/14 03:20:50;;;;;;;21.73;15.07;;;;;;;5.54;77.67;93523.75;4928283;28;20039;-83
2021/03/14 03:23:15;;;;;;;23.63;15.88;;;;;;;5.51;77.82;93519.03;4976906;28;20042;-82
2021/03/14 03:25:41;;;;;;;26.20;20.17;;;;;;;5.24;78.04;93497.56;4972731;28;20044;-82
2021/03/14 03:28:07;;;;;;;22.17;15.85;;;;;;;5.21;77.57;93477.13;4968521;28;20022;-82
2021/03/14 03:30:35;;;;;;;26.55;17.92;;;;;;;5.26;78.01;93505.94;4976890;28;20555;-82
2021/03/14 03:33:08;;;;;;;22.38;15.93;;;;;;;5.15;78.54;93493.91;4975776;28;20038;-82
2021/03/14 03:35:34;;;;;;;28.05;19.85;;;;;;;5.01;78.28;93472.69;4971620;28;20053;-82
2021/03/14 03:38:00;;;;;;;28.55;20.30;;;;;;;5.34;77.75;93515.09;4921866;28;20057;-82
2021/03/14 03:40:31;;;;;;;29.42;21.05;;;;;;;4.99;77.58;93463.50;4940832;28;20049;-83
2021/03/14 03:43:06;;;;;;;40.35;26.98;;;;;;;5.14;77.73;93503.59;4943076;28;20049;-82
2021/03/14 03:45:35;;;;;;;51.72;33.58;;;;;;;5.08;77.61;93488.16;4966480;28;20097;-82
2021/03/14 03:48:03;;;;;;;45.78;30.73;;;;;;;4.98;77.62;93486.31;4992728;28;20038;-82
2021/03/14 03:50:35;;;;;;;48.55;32.83;;;;;;;5.23;77.49;93528.19;4971336;28;20823;-82
2021/03/14 03:53:03;;;;;;;56.17;37.40;;;;;;;4.90;77.94;93499.09;4965607;28;20073;-82
2021/03/14 03:55:29;;;;;;;51.75;35.03;;;;;;;4.70;78.43;93466.63;4972224;28;20034;-82
2021/03/14 03:57:55;;;;;;;46.90;31.10;;;;;;;4.90;77.93;93470.31;4988761;28;20034;-82
2021/03/14 04:00:22;;;;;;;43.90;29.05;;;;;;;4.84;77.76;93458.28;4975077;28;20311;-83
2021/03/14 04:02:56;;;;;;;46.97;30.90;;;;;;;4.83;78.34;93490.75;4964464;28;20038;-82
2021/03/14 04:05:25;;;;;;;44.63;28.97;;;;;;;5.11;77.97;93513.81;4961487;28;20124;-82
2021/03/14 04:07:53;;;;;;;36.33;26.27;;;;;;;4.80;77.90;93461.41;4945551;28;20746;-82
2021/03/14 04:10:42;;;;;;;37.40;24.35;;;;;;;4.90;77.75;93476.34;4981187;28;20134;-81
2021/03/14 04:13:11;;;;;;;37.22;25.98;;;;;;;4.83;77.50;93467.19;4955948;28;20506;-82
2021/03/14 04:15:47;;;;;;;37.20;27.33;;;;;;;4.91;77.97;93505.91;4981441;28;20383;-82
2021/03/14 04:18:23;;;;;;;48.65;30.17;;;;;;;4.90;77.83;93493.88;4912964;28;20491;-82
2021/03/14 04:20:58;;;;;;;47.03;28.90;;;;;;;4.96;78.47;93508.56;4924025;28;20054;-82
2021/03/14 04:23:30;;;;;;;44.47;31.25;;;;;;;4.68;78.25;93471.34;4963221;28;20058;-82
2021/03/14 04:25:57;;;;;;;46.45;31.27;;;;;;;4.79;78.54;93474.75;4972827;28;20069;-83
2021/03/14 04:28:43;;;;;;;56.05;37.13;;;;;;;4.53;78.71;93445.16;4972471;28;20081;-83
2021/03/14 04:31:19;;;;;;;54.80;36.13;;;;;;;4.87;79.15;93492.56;4950870;28;20080;-83
2021/03/14 04:33:54;;;;;;;53.03;34.97;;;;;;;4.68;79.22;93473.19;4975458;28;20122;-82
2021/03/14 04:37:09;;;;;;;44.72;31.10;;;;;;;4.45;79.40;93442.28;4902075;28;20542;-82
2021/03/14 04:39:45;;;;;;;34.90;23.73;;;;;;;4.82;79.47;93489.16;4909682;28;20042;-83
2021/03/14 04:42:15;;;;;;;34.25;23.35;;;;;;;4.39;79.57;93417.94;4909959;28;20066;-83
2021/03/14 04:45:14;;;;;;;26.13;20.63;;;;;;;4.70;79.80;93474.47;4972387;28;20654;-85
2021/03/14 04:47:45;;;;;;;32.42;19.67;;;;;;;4.85;79.77;93483.41;4897506;28;20562;-85
2021/03/14 04:50:30;;;;;;;28.33;18.92;;;;;;;4.49;80.10;93417.94;4917953;28;20038;-85
2021/03/14 04:53:15;;;;;;;31.10;19.60;;;;;;;5.16;79.94;93464.03;4940692;28;20050;-84
2021/03/14 04:55:47;;;;;;;30.00;20.98;;;;;;;5.62;78.85;93481.25;4940000;28;20419;-82
2021/03/14 04:58:16;;;;;;;27.95;18.02;;;;;;;5.81;76.96;93433.53;4974186;28;20158;-84
2021/03/14 05:00:42;;;;;;;27.13;18.48;;;;;;;6.29;76.54;93466.94;4975829;28;20045;-85
2021/03/14 05:03:25;;;;;;;21.02;16.00;;;;;;;6.87;74.11;93467.91;4966546;28;20243;-82
2021/03/14 05:06:11;;;;;;;21.45;15.43;;;;;;;7.20;71.61;93445.31;4973650;28;20084;-83
2021/03/14 05:08:50;;;;;;;23.73;15.13;;;;;;;7.32;71.62;93419.47;4948304;28;20173;-82
2021/03/14 05:11:20;;;;;;;18.25;15.13;;;;;;;7.85;71.38;93427.34;4937189;28;20482;-82
2021/03/14 05:13:47;;;;;;;17.85;13.40;;;;;;;8.75;66.00;93453.63;4951425;28;20048;-82
2021/03/14 05:16:18;;;;;;;21.38;14.93;;;;;;;8.78;65.16;93426.72;4983478;28;20041;-82
2021/03/14 05:18:47;;;;;;;21.00;15.40;;;;;;;9.68;61.61;93436.06;4975369;28;20034;-82
2021/03/14 05:21:16;;;;;;;19.48;16.10;;;;;;;9.84;60.91;93443.41;4952428;28;20039;-83
2021/03/14 05:23:42;;;;;;;23.70;17.77;;;;;;;10.18;58.93;93394.75;4963430;28;20511;-83
2021/03/14 05:26:12;;;;;;;23.88;17.88;;;;;;;11.12;56.69;93461.69;4974846;28;20406;-84
2021/03/14 05:28:51;;;;;;;27.08;20.38;;;;;;;11.34;56.05;93426.50;4968675;28;20042;-84
2021/03/14 05:31:30;;;;;;;30.27;23.17;;;;;;;12.00;53.64;93449.50;4984319;28;20046;-82
2021/03/14 05:33:57;;;;;;;29.98;23.23;;;;;;;12.03;52.47;93411.00;4971413;28;20052;-82
2021/03/14 05:36:24;;;;;;;38.20;25.77;;;;;;;12.81;50.26;93404.00;4975056;28;20026;-82
2021/03/14 05:38:50;;;;;;;37.70;26.70;;;;;;;13.77;47.83;93440.81;4971730;28;20061;-82
2021/03/14 05:41:15;;;;;;;34.35;26.80;;;;;;;13.86;47.10;93434.38;4970782;28;20498;-82
2021/03/14 05:43:45;;;;;;;35.65;24.77;;;;;;;13.64;46.24;93409.88;4985799;28;20100;-82
2021/03/14 05:46:11;;;;;;;26.17;23.23;;;;;;;13.99;45.86;93453.84;4986492;28;20101;-82
2021/03/14 05:48:38;;;;;;;29.58;23.58;;;;;;;14.53;45.46;93462.09;4975395;28;20034;-82
2021/03/14 05:51:07;;;;;;;28.95;22.80;;;;;;;14.23;45.13;93442.66;4973678;28;20644;-82
2021/03/14 05:53:38;;;;;;;31.63;24.20;;;;;;;14.80;44.72;93445.69;4973956;28;20038;-82
2021/03/14 05:56:11;;;;;;;31.17;24.80;;;;;;;14.90;44.03;93445.31;4971118;28;20081;-82
2021/03/14 05:58:40;;;;;;;29.55;23.15;;;;;;;15.15;42.42;93407.06;4954824;28;20065;-82
2021/03/14 06:01:11;;;;;;;32.40;25.27;;;;;;;15.02;42.78;93418.78;4970823;28;20018;-82
2021/03/14 06:03:38;;;;;;;33.35;27.98;;;;;;;14.84;43.15;93401.38;4974908;28;20475;-82
2021/03/14 06:06:07;;;;;;;36.15;27.23;;;;;;;14.84;42.36;93404.03;4970003;28;20042;-82
2021/03/14 06:08:33;;;;;;;35.30;27.30;;;;;;;16.07;42.61;93438.03;4976645;28;20034;-82
2021/03/14 06:11:03;;;;;;;39.33;29.48;;;;;;;16.78;40.16;93417.84;4988871;28;20068;-83
2021/03/14 06:13:37;;;;;;;39.83;30.70;;;;;;;16.86;39.32;93422.28;4971873;28;20120;-82
2021/03/14 06:16:09;;;;;;;41.20;35.50;;;;;;;17.31;39.99;93431.97;4989126;28;20031;-81
2021/03/14 06:18:35;;;;;;;35.75;27.92;;;;;;;18.02;37.45;93423.22;4976870;28;20019;-83
2021/03/14 06:21:02;;;;;;;33.33;26.60;;;;;;;18.46;36.83;93432.75;4971704;28;20062;-82
2021/03/14 06:23:28;;;;;;;31.77;25.15;;;;;;;18.47;35.86;93439.63;4974468;28;20609;-82
2021/03/14 06:25:56;;;;;;;31.25;24.70;;;;;;;18.81;36.05;93459.59;4970452;28;24656;-83
2021/03/14 06:28:32;;;;;;;35.25;28.10;;;;;;;19.59;34.73;93447.13;4975122;28;20117;-82
2021/03/14 06:31:17;;;;;;;29.13;23.73;;;;;;;19.97;33.66;93438.28;4952693;28;20030;-82
2021/03/14 06:33:43;;;;;;;30.13;25.13;;;;;;;20.33;33.14;93457.34;4987578;28;20109;-81
2021/03/14 06:36:17;;;;;;;30.55;22.92;;;;;;;20.77;32.33;93438.09;4974066;28;20121;-82
2021/03/14 06:38:43;;;;;;;26.17;21.73;;;;;;;21.41;31.47;93429.06;4973770;28;20100;-82
2021/03/14 06:41:20;;;;;;;20.95;18.58;;;;;;;22.30;30.06;93449.72;4974335;28;20053;-82
2021/03/14 06:43:50;;;;;;;26.58;20.55;;;;;;;22.14;29.69;93449.16;4991108;28;20034;-82
2021/03/14 06:46:20;;;;;;;24.35;20.45;;;;;;;22.86;30.24;93452.16;4978269;28;20156;-82
2021/03/14 06:48:46;;;;;;;23.42;20.92;;;;;;;23.48;28.22;93432.53;4983596;28;20022;-82
2021/03/14 06:51:11;;;;;;;25.80;22.30;;;;;;;24.20;28.20;93455.94;4997083;28;20048;-82
2021/03/14 06:53:37;;;;;;;22.38;19.38;;;;;;;24.54;26.04;93436.34;4999189;28;20045;-82
2021/03/14 06:56:08;;;;;;;23.00;18.35;;;;;;;23.50;27.73;93431.03;4992426;28;20042;-82
2021/03/14 06:58:36;;;;;;;27.52;20.75;;;;;;;24.33;26.56;93440.97;4989961;28;20498;-82
2021/03/14 07:01:15;;;;;;;23.42;19.05;;;;;;;24.11;26.69;93410.41;4976152;28;20037;-82
2021/03/14 07:03:50;;;;;;;23.83;19.50;;;;;;;24.14;26.65;93431.25;4998229;28;20014;-82
2021/03/14 07:06:26;;;;;;;22.85;18.13;;;;;;;24.62;26.31;93437.13;4968970;28;20130;-81
2021/03/14 07:09:09;;;;;;;23.90;18.70;;;;;;;25.32;25.14;93430.91;4992916;28;20532;-82
2021/03/14 07:11:43;;;;;;;29.73;19.77;;;;;;;25.91;25.06;93441.19;4968414;28;20050;-82
2021/03/14 07:14:16;;;;;;;21.23;17.73;;;;;;;26.02;24.67;93441.94;4959890;28;20038;-82
2021/03/14 07:16:49;;;;;;;26.48;18.70;;;;;;;26.03;24.52;93441.53;4980844;28;20298;-82
2021/03/14 07:19:29;;;;;;;20.58;16.08;;;;;;;26.07;24.23;93411.72;4989495;28;20042;-82
2021/03/14 07:21:57;;;;;;;18.52;16.10;;;;;;;26.33;24.37;93432.91;4972686;28;20651;-83
2021/03/14 07:24:29;;;;;;;23.10;17.55;;;;;;;26.28;24.39;93434.09;4995131;28;20030;-82
2021/03/14 07:26:55;;;;;;;24.65;16.00;;;;;;;26.67;24.12;93420.28;4990383;28;20385;-83
2021/03/14 07:29:21;;;;;;;16.95;14.35;;;;;;;26.44;23.78;93375.94;4900319;28;20054;-81
2021/03/14 07:31:46;;;;;;;19.75;15.82;;;;;;;26.62;23.91;93409.09;4972561;28;21173;-81
2021/03/14 07:34:12;;;;;;;20.17;15.20;;;;;;;27.03;23.73;93414.56;4942687;28;21107;-82
2021/03/14 07:36:38;;;;;;;24.58;15.52;;;;;;;26.76;23.25;93376.44;4976287;28;20040;-82
2021/03/14 07:39:06;;;;;;;17.80;14.63;;;;;;;28.05;22.39;93392.94;4990390;28;20069;-82
2021/03/14 07:41:31;;;;;;;17.88;14.23;;;;;;;28.55;21.95;93377.47;4993162;28;20144;-81
2021/03/14 07:44:01;;;;;;;19.05;15.82;;;;;;;28.43;22.24;93386.22;4968262;28;20162;-82
2021/03/14 07:46:27;;;;;;;20.55;16.30;;;;;;;28.33;22.25;93415.09;4972510;28;20069;-82
2021/03/14 07:48:53;;;;;;;20.05;17.13;;;;;;;28.10;22.82;93411.50;4969900;28;20030;-82
2021/03/14 07:51:21;;;;;;;18.45;16.52;;;;;;;27.80;23.08;93383.19;4970094;28;20667;-81
2021/03/14 07:53:48;;;;;;;16.77;15.15;;;;;;;29.20;22.14;93375.28;4975026;28;20407;-82
2021/03/14 07:56:13;;;;;;;24.08;17.05;;;;;;;29.97;20.87;93381.19;4972589;28;21315;-82
2021/03/14 07:58:42;;;;;;;19.45;17.15;;;;;;;30.69;20.16;93364.81;4939874;28;20042;-81
2021/03/14 08:01:27;;;;;;;19.65;17.73;;;;;;;29.85;20.44;93394.69;4962774;28;20019;-82
2021/03/14 08:03:54;;;;;;;19.25;17.35;;;;;;;30.25;20.58;93396.16;4970455;28;20030;-82
2021/03/14 08:06:45;;;;;;;20.38;17.63;;;;;;;30.27;20.29;93391.06;4975116;28;20026;-82
2021/03/14 08:09:12;;;;;;;18.58;16.38;;;;;;;30.79;20.02;93382.13;4947144;28;20566;-82
2021/03/14 08:11:37;;;;;;;16.75;15.05;;;;;;;31.57;19.87;93389.13;4971377;28;20034;-81
2021/03/14 08:14:03;;;;;;;17.40;15.75;;;;;;;32.76;18.15;93358.72;4971427;28;20380;-82
2021/03/14 08:16:32;;;;;;;16.70;14.85;;;;;;;33.45;17.51;93362.28;4971558;28;20030;-82
2021/03/14 08:19:11;;;;;;;16.80;14.77;;;;;;;33.18;17.56;93361.31;4970144;28;20034;-82
2021/03/14 08:21:40;;;;;;;17.23;15.52;;;;;;;33.45;17.53;93375.22;4970956;28;20043;-82
2021/03/14 08:24:06;;;;;;;21.42;17.25;;;;;;;32.81;17.95;93366.38;4972650;28;20104;-81
2021/03/14 08:26:34;;;;;;;17.23;15.52;;;;;;;32.85;18.41;93369.75;4975929;28;20135;-82
2021/03/14 08:29:00;;;;;;;22.40;20.10;;;;;;;33.58;17.42;93384.16;4965764;28;20173;-82
2021/03/14 08:31:55;;;;;;;21.88;19.77;;;;;;;33.70;16.82;93375.16;4969921;28;20411;-82
2021/03/14 08:34:23;;;;;;;22.98;19.27;;;;;;;34.14;17.01;93369.66;4931460;28;20121;-82
2021/03/14 08:36:50;;;;;;;26.20;23.48;;;;;;;34.90;16.52;93369.06;4939848;28;20074;-82
2021/03/14 08:39:28;;;;;;;27.05;22.67;;;;;;;35.14;16.46;93370.81;4953690;28;21375;-82
2021/03/14 08:42:00;;;;;;;25.38;22.05;;;;;;;35.78;16.33;93383.88;4985409;28;20065;-83
2021/03/14 08:44:52;;;;;;;27.10;21.90;;;;;;;36.00;15.07;93346.75;4970350;28;20034;-82
2021/03/14 08:47:25;;;;;;;25.67;20.50;;;;;;;35.73;15.82;93341.28;4970866;28;20042;-82
2021/03/14 08:49:53;;;;;;;27.00;24.50;;;;;;;36.54;15.20;93372.59;4960197;28;20519;-81
2021/03/14 08:52:22;;;;;;;24.90;22.08;;;;;;;36.37;15.30;93361.16;4970897;28;20496;-82
2021/03/14 08:54:54;;;;;;;36.60;31.48;;;;;;;37.19;14.95;93371.84;4962219;28;20030;-82
2021/03/14 08:57:20;;;;;;;31.77;28.48;;;;;;;36.86;14.64;93360.84;4968112;28;20228;-82
2021/03/14 09:00:13;;;;;;;31.48;28.27;;;;;;;36.94;15.21;93372.28;4965505;28;20070;-81
2021/03/14 09:02:38;;;;;;;31.55;28.10;;;;;;;36.85;15.14;93364.06;4952563;28;20058;-82
2021/03/14 09:05:14;;;;;;;29.55;26.45;;;;;;;36.67;15.38;93369.66;4939581;28;21133;-82
2021/03/14 09:07:47;;;;;;;29.65;26.83;;;;;;;36.68;15.28;93371.19;4982697;28;20050;-82
2021/03/14 09:10:20;;;;;;;31.45;26.70;;;;;;;36.97;14.70;93371.34;4973682;28;20074;-83
2021/03/14 09:13:00;;;;;;;35.75;27.60;;;;;;;36.04;15.57;93371.31;4973173;28;20030;-82
2021/03/14 09:15:26;;;;;;;33.53;30.10;;;;;;;35.57;15.48;93358.84;4960054;28;20096;-82
2021/03/14 09:18:03;;;;;;;50.42;35.67;;;;;;;35.25;16.00;93353.91;4949277;28;20038;-81
2021/03/14 09:20:29;;;;;;;31.25;27.90;;;;;;;34.22;16.93;93351.72;4953680;28;20046;-82
2021/03/14 09:22:56;;;;;;;36.17;29.85;;;;;;;34.05;16.74;93364.13;4956679;28;20066;-82
2021/03/14 09:25:22;;;;;;;28.95;23.63;;;;;;;32.62;17.20;93351.72;4963571;28;20102;-82
2021/03/14 09:27:49;;;;;;;30.73;25.42;;;;;;;31.81;18.94;93345.97;4973632;28;20055;-82
2021/03/14 09:30:19;;;;;;;25.95;23.17;;;;;;;32.44;17.93;93343.31;4977576;28;20034;-82
2021/03/14 09:32:52;;;;;;;29.42;23.33;;;;;;;33.06;17.98;93336.22;4969605;28;20030;-82
2021/03/14 09:35:25;;;;;;;22.60;20.17;;;;;;;33.66;17.84;93340.84;4973011;28;20121;-82
2021/03/14 09:37:57;;;;;;;24.23;21.75;;;;;;;33.46;17.54;93336.44;4964662;28;20043;-82
2021/03/14 09:40:47;;;;;;;23.58;19.10;;;;;;;33.85;16.81;93334.28;4961960;28;20044;-82
2021/03/14 09:43:28;;;;;;;24.45;21.92;;;;;;;32.87;17.64;93318.09;4989625;28;20120;-82
2021/03/14 09:45:59;;;;;;;26.40;22.45;;;;;;;33.20;17.27;93313.09;4989209;28;20042;-83
2021/03/14 09:48:27;;;;;;;25.13;22.45;;;;;;;32.64;18.13;93326.69;4976574;28;20034;-82
2021/03/14 09:51:00;;;;;;;25.98;22.95;;;;;;;32.10;18.73;93329.50;4994330;28;20128;-81
2021/03/14 09:53:31;;;;;;;31.13;22.63;;;;;;;31.88;18.71;93309.44;4990188;28;20128;-82
2021/03/14 09:55:59;;;;;;;27.65;23.75;;;;;;;30.43;19.25;93320.22;4984366;28;20283;-83
2021/03/14 09:58:26;;;;;;;28.70;24.75;;;;;;;29.27;21.34;93315.28;4987711;28;20518;-82
2021/03/14 10:00:54;;;;;;;30.77;25.58;;;;;;;29.17;21.16;93316.25;4990951;28;20100;-82
2021/03/14 10:03:27;;;;;;;28.70;25.63;;;;;;;29.40;21.45;93327.09;4992643;28;20541;-82
2021/03/14 10:05:54;;;;;;;27.92;25.13;;;;;;;28.68;22.31;93315.94;4989495;28;20058;-82
2021/03/14 10:08:25;;;;;;;34.92;26.52;;;;;;;27.83;22.27;93311.75;4987668;28;20045;-81
2021/03/14 10:10:53;;;;;;;23.95;21.48;;;;;;;27.22;22.65;93310.94;4980058;28;20092;-82
2021/03/14 10:13:24;;;;;;;24.88;21.90;;;;;;;27.06;23.00;93302.59;4974350;28;20042;-81
2021/03/14 10:15:52;;;;;;;29.35;23.35;;;;;;;26.67;23.61;93302.97;4975197;28;20029;-82
2021/03/14 10:18:19;;;;;;;39.28;28.70;;;;;;;26.85;24.00;93314.41;4990209;28;20045;-82
2021/03/14 10:20:44;;;;;;;26.70;23.40;;;;;;;27.28;23.72;93290.31;4983127;28;20117;-82
2021/03/14 10:23:10;;;;;;;26.65;23.80;;;;;;;27.37;23.26;93281.69;4986575;28;20064;-82
2021/03/14 10:25:38;;;;;;;26.95;23.33;;;;;;;27.57;22.80;93298.91;4997144;28;20055;-82
2021/03/14 10:28:09;;;;;;;33.75;26.15;;;;;;;27.11;23.69;93292.09;4994274;28;20513;-81
2021/03/14 10:30:35;;;;;;;28.98;22.17;;;;;;;26.64;23.74;93288.25;5000428;28;20474;-82
2021/03/14 10:33:00;;;;;;;28.80;24.15;;;;;;;26.23;24.62;93287.47;4995671;28;20034;-81
2021/03/14 10:35:27;;;;;;;34.10;24.02;;;;;;;25.44;25.35;93289.06;4974786;28;20856;-81
2021/03/14 10:37:52;;;;;;;27.35;23.95;;;;;;;25.23;25.64;93292.63;4990561;28;20034;-81
2021/03/14 10:40:25;;;;;;;25.02;22.33;;;;;;;24.94;26.42;93277.69;5000026;28;20080;-81
2021/03/14 10:42:52;;;;;;;31.35;22.35;;;;;;;25.03;25.57;93272.63;4993756;28;20064;-82
2021/03/14 10:45:23;;;;;;;30.95;22.60;;;;;;;24.86;25.92;93268.03;4979169;28;20030;-81
2021/03/14 10:48:05;;;;;;;26.23;20.27;;;;;;;24.28;26.89;93266.59;4980513;28;20046;-81
2021/03/14 10:50:33;;;;;;;27.85;20.23;;;;;;;23.78;27.25;93256.91;4989456;28;20790;-81
2021/03/14 10:53:25;;;;;;;28.05;19.65;;;;;;;23.58;27.06;93249.19;4997505;28;20042;-81
2021/03/14 10:56:02;;;;;;;21.95;16.38;;;;;;;23.30;27.64;93251.78;4991132;28;20061;-81
2021/03/14 10:58:38;;;;;;;16.65;13.43;;;;;;;23.39;26.57;93236.00;4992011;28;20125;-81
2021/03/14 11:01:07;;;;;;;16.60;13.13;;;;;;;23.37;26.15;93230.22;5008703;28;20185;-81
2021/03/14 11:03:38;;;;;;;14.68;9.52;;;;;;;22.99;25.45;93222.81;4979134;28;20019;-80
2021/03/14 11:06:14;;;;;;;11.80;7.90;;;;;;;23.07;26.50;93219.75;4969174;28;20075;-81
2021/03/14 11:08:53;;;;;;;12.20;7.88;;;;;;;22.93;25.70;93218.91;4971532;28;20042;-81
2021/03/14 11:11:22;;;;;;;12.32;8.20;;;;;;;22.55;27.05;93210.28;5004262;28;20034;-81
2021/03/14 11:13:51;;;;;;;14.75;7.07;;;;;;;22.37;26.42;93202.13;5006405;28;20113;-81
2021/03/14 11:16:17;;;;;;;10.38;7.13;;;;;;;22.25;27.22;93209.72;4996303;28;20512;-81
2021/03/14 11:18:42;;;;;;;10.13;7.05;;;;;;;22.43;27.43;93199.84;4997979;28;20022;-81
2021/03/14 11:21:11;;;;;;;15.27;9.27;;;;;;;22.30;27.15;93171.69;4994754;28;20046;-81
2021/03/14 11:23:37;;;;;;;10.60;8.20;;;;;;;22.40;27.01;93187.13;4998369;28;20034;-81
2021/03/14 11:26:02;;;;;;;13.65;8.18;;;;;;;22.41;27.01;93184.06;4994151;28;20840;-81
2021/03/14 11:28:28;;;;;;;8.75;7.22;;;;;;;22.11;26.30;93185.41;4994768;28;20045;-80
2021/03/14 11:30:55;;;;;;;7.80;6.97;;;;;;;21.86;26.33;93180.59;4993007;28;20116;-81
2021/03/14 11:33:23;;;;;;;10.07;7.03;;;;;;;21.53;26.64;93173.44;4997662;28;20021;-81
2021/03/14 11:35:50;;;;;;;11.52;7.15;;;;;;;21.64;26.93;93162.00;4979239;28;20034;-81
2021/03/14 11:38:15;;;;;;;25.33;16.88;;;;;;;21.66;27.14;93176.59;4971662;28;20469;-81